Time;durP1;ratioP1;P1;durP2;ratioP2;P2;SDS_P1;SDS_P2;PMS_P1;PMS_P2;Temp;Humidity;BMP_temperature;BMP_pressure;BME280_temperature;BME280_humidity;BME280_pressure;Samples;Min_cycle;Max_cycle;Signal;HPM_P1;HPM_P2
2021/01/10 00:01:15;;;;;;;14.63;8.20;;;;;;;-0.97;100.00;102597.25;4699016;30;20109;-87
2021/01/10 00:03:41;;;;;;;18.50;8.52;;;;;;;-0.96;100.00;102608.53;4710070;30;20072;-87
2021/01/10 00:06:10;;;;;;;15.13;7.95;;;;;;;-1.13;100.00;102571.69;4708494;30;20046;-87
2021/01/10 00:08:36;;;;;;;21.08;8.85;;;;;;;-1.16;100.00;102582.81;4702841;30;20037;-87
2021/01/10 00:11:01;;;;;;;19.67;7.95;;;;;;;-1.20;100.00;102562.84;4687226;30;20069;-87
2021/01/10 00:13:26;;;;;;;19.75;9.70;;;;;;;-1.11;100.00;102593.34;4696812;30;20072;-87
2021/01/10 00:15:59;;;;;;;16.17;9.95;;;;;;;-1.22;100.00;102586.94;4705114;30;20470;-87
2021/01/10 00:18:27;;;;;;;22.58;9.30;;;;;;;-1.46;100.00;102568.88;4715837;30;20048;-87
2021/01/10 00:20:53;;;;;;;18.90;8.93;;;;;;;-1.34;100.00;102590.03;4727296;30;20544;-87
2021/01/10 00:23:20;;;;;;;22.05;9.45;;;;;;;-1.24;100.00;102599.88;4738136;30;20039;-87
2021/01/10 00:25:45;;;;;;;14.20;8.45;;;;;;;-1.31;100.00;102578.06;4732988;30;20052;-87
2021/01/10 00:28:11;;;;;;;15.77;8.70;;;;;;;-1.26;100.00;102567.81;4746487;30;20059;-85
2021/01/10 00:30:36;;;;;;;13.75;8.05;;;;;;;-1.00;100.00;102593.69;4740443;30;20477;-86
2021/01/10 00:33:01;;;;;;;18.88;8.43;;;;;;;-0.86;100.00;102590.69;4808651;29;20061;-87
2021/01/10 00:35:30;;;;;;;13.88;8.02;;;;;;;-0.87;100.00;102588.03;4836365;29;20030;-87
2021/01/10 00:37:56;;;;;;;15.82;8.73;;;;;;;-0.92;100.00;102580.13;4834198;29;20558;-87
2021/01/10 00:40:39;;;;;;;17.75;9.00;;;;;;;-0.75;100.00;102585.84;4832787;29;20091;-87
2021/01/10 00:43:04;;;;;;;21.77;8.43;;;;;;;-0.65;100.00;102567.09;4838668;29;20455;-87
2021/01/10 00:45:30;;;;;;;19.27;8.52;;;;;;;-0.54;100.00;102565.69;4833650;29;20026;-87
2021/01/10 00:47:55;;;;;;;20.15;7.90;;;;;;;-0.58;100.00;102561.22;4838265;29;20133;-87
2021/01/10 00:50:21;;;;;;;16.15;8.02;;;;;;;-0.43;100.00;102584.16;4832969;29;20042;-87
2021/01/10 00:52:46;;;;;;;20.63;8.30;;;;;;;-0.35;100.00;102581.75;4835537;29;20044;-87
2021/01/10 00:55:11;;;;;;;14.10;7.57;;;;;;;-0.35;100.00;102560.97;4838556;29;20033;-87
2021/01/10 00:57:37;;;;;;;17.35;7.63;;;;;;;-0.20;100.00;102577.03;4836088;29;20113;-87
2021/01/10 01:00:13;;;;;;;16.88;7.40;;;;;;;-0.20;100.00;102573.50;4836634;29;20041;-87
2021/01/10 01:02:38;;;;;;;19.35;8.05;;;;;;;-0.28;100.00;102578.53;4828746;29;20030;-86
2021/01/10 01:05:04;;;;;;;13.65;7.38;;;;;;;-0.18;100.00;102585.72;4849234;29;20045;-86
2021/01/10 01:07:29;;;;;;;13.55;6.72;;;;;;;0.04;100.00;102571.56;4832717;29;20494;-87
2021/01/10 01:09:54;;;;;;;17.02;8.50;;;;;;;0.12;100.00;102596.06;4833902;29;20094;-87
2021/01/10 01:12:20;;;;;;;17.98;7.22;;;;;;;-0.04;100.00;102570.50;4834110;29;20026;-86
2021/01/10 01:14:45;;;;;;;20.27;6.88;;;;;;;0.18;100.00;102587.53;4833066;29;20026;-86
2021/01/10 01:17:11;;;;;;;16.15;7.00;;;;;;;0.31;100.00;102592.25;4832701;29;20034;-86
2021/01/10 01:19:36;;;;;;;11.05;6.57;;;;;;;0.24;100.00;102579.91;4832847;29;20088;-86
2021/01/10 01:22:01;;;;;;;17.05;6.57;;;;;;;0.31;100.00;102600.03;4833441;29;20125;-87
2021/01/10 01:24:27;;;;;;;12.55;6.47;;;;;;;0.33;100.00;102580.13;4849820;29;20098;-86
2021/01/10 01:26:52;;;;;;;11.93;5.60;;;;;;;0.47;100.00;102585.69;4833506;29;20042;-87
2021/01/10 01:29:21;;;;;;;15.02;6.82;;;;;;;0.35;100.00;102581.06;4833230;29;20054;-87
2021/01/10 01:31:46;;;;;;;16.40;6.85;;;;;;;0.25;100.00;102590.38;4833925;29;20030;-87
2021/01/10 01:34:11;;;;;;;10.38;5.97;;;;;;;0.36;100.00;102590.63;4836053;29;20030;-87
2021/01/10 01:36:37;;;;;;;15.88;6.30;;;;;;;0.33;100.00;102581.88;4835101;29;20049;-87
2021/01/10 01:39:05;;;;;;;16.75;5.35;;;;;;;0.69;100.00;102589.69;4832494;29;20124;-87
2021/01/10 01:41:37;;;;;;;10.38;5.60;;;;;;;0.82;100.00;102588.28;4830453;29;20390;-86
2021/01/10 01:44:04;;;;;;;12.82;4.55;;;;;;;0.82;100.00;102568.31;4828327;29;20483;-86
2021/01/10 01:46:31;;;;;;;10.35;5.13;;;;;;;0.91;100.00;102591.97;4829142;29;20391;-85
2021/01/10 01:49:01;;;;;;;7.75;5.10;;;;;;;1.02;100.00;102600.03;4827678;29;20037;-85
2021/01/10 01:51:29;;;;;;;10.82;4.55;;;;;;;1.08;100.00;102600.16;4830196;29;20034;-86
2021/01/10 01:53:54;;;;;;;18.95;5.10;;;;;;;0.96;100.00;102585.16;4831082;29;20033;-87
2021/01/10 01:56:20;;;;;;;13.23;4.57;;;;;;;1.07;100.00;102595.81;4847181;29;20041;-87
2021/01/10 01:59:05;;;;;;;11.52;4.03;;;;;;;1.15;100.00;102573.41;4830333;29;20049;-87
2021/01/10 02:01:33;;;;;;;15.43;4.70;;;;;;;1.23;100.00;102581.41;4834707;29;20494;-87
2021/01/10 02:04:25;;;;;;;21.35;4.88;;;;;;;1.33;100.00;102592.91;4848036;29;20439;-87
2021/01/10 02:07:28;;;;;;;15.10;4.97;;;;;;;1.34;100.00;102586.81;4835731;29;20034;-88
2021/01/10 02:10:06;;;;;;;14.05;4.55;;;;;;;1.36;100.00;102585.16;4828378;29;20138;-87
2021/01/10 02:12:34;;;;;;;11.70;4.77;;;;;;;0.99;100.00;102589.53;4815038;29;20041;-87
2021/01/10 02:15:07;;;;;;;6.20;3.83;;;;;;;1.20;100.00;102583.91;4830812;29;20055;-87
2021/01/10 02:17:35;;;;;;;8.30;4.40;;;;;;;1.01;100.00;102567.91;4847534;29;20123;-87
2021/01/10 02:20:27;;;;;;;13.20;4.38;;;;;;;1.11;100.00;102578.53;4846599;29;20026;-87
2021/01/10 02:23:09;;;;;;;11.70;4.60;;;;;;;1.11;100.00;102550.75;4830520;29;20087;-87
2021/01/10 02:25:37;;;;;;;14.02;4.60;;;;;;;1.28;100.00;102558.94;4830943;29;20029;-87
2021/01/10 02:28:05;;;;;;;8.70;3.90;;;;;;;1.26;100.00;102566.72;4854556;29;20053;-87
2021/01/10 02:30:32;;;;;;;12.15;3.92;;;;;;;1.49;100.00;102563.69;4832122;29;20027;-87
2021/01/10 02:33:04;;;;;;;10.10;5.05;;;;;;;1.43;100.00;102548.81;4828552;29;20041;-87
2021/01/10 02:35:36;;;;;;;9.18;3.90;;;;;;;1.62;100.00;102562.22;4827759;29;20472;-87
2021/01/10 02:38:32;;;;;;;9.52;4.10;;;;;;;1.53;100.00;102555.97;4831050;29;20034;-87
2021/01/10 02:41:25;;;;;;;9.48;4.63;;;;;;;1.29;100.00;102558.94;4826437;29;20038;-87
2021/01/10 02:44:30;;;;;;;9.32;4.82;;;;;;;1.25;100.00;102551.91;4841357;29;20105;-87
2021/01/10 02:46:56;;;;;;;10.93;3.92;;;;;;;1.18;100.00;102551.75;4826884;29;20095;-86
2021/01/10 02:49:22;;;;;;;13.80;4.68;;;;;;;0.94;100.00;102557.31;4828255;29;20034;-87
2021/01/10 02:51:51;;;;;;;9.50;4.07;;;;;;;0.98;100.00;102556.53;4846367;29;20055;-87
2021/01/10 02:54:18;;;;;;;7.75;4.00;;;;;;;0.93;100.00;102533.00;4826648;29;20039;-86
2021/01/10 02:56:59;;;;;;;16.83;5.53;;;;;;;0.86;100.00;102540.66;4845033;29;20049;-87
2021/01/10 02:59:27;;;;;;;12.50;5.78;;;;;;;0.61;100.00;102550.50;4826399;29;20030;-86
2021/01/10 03:01:58;;;;;;;10.95;5.15;;;;;;;0.63;100.00;102540.97;4829422;29;20038;-86
2021/01/10 03:04:24;;;;;;;10.38;4.40;;;;;;;0.74;100.00;102541.22;4828915;29;20154;-86
2021/01/10 03:06:53;;;;;;;14.38;4.47;;;;;;;0.57;100.00;102533.03;4849360;29;20046;-86
2021/01/10 03:09:19;;;;;;;9.50;5.20;;;;;;;0.39;100.00;102523.06;4839337;29;20026;-86
2021/01/10 03:11:45;;;;;;;12.75;4.43;;;;;;;0.46;100.00;102526.72;4825097;29;20495;-86
2021/01/10 03:14:10;;;;;;;11.52;5.30;;;;;;;0.41;100.00;102525.72;4825946;29;20083;-87
2021/01/10 03:16:36;;;;;;;8.93;5.22;;;;;;;0.20;100.00;102536.44;4829977;29;20030;-87
2021/01/10 03:19:03;;;;;;;11.55;5.22;;;;;;;0.16;100.00;102519.03;4834428;29;20036;-87
2021/01/10 03:21:28;;;;;;;9.18;4.32;;;;;;;0.13;100.00;102506.81;4848765;29;20029;-87
2021/01/10 03:23:57;;;;;;;10.05;4.90;;;;;;;0.18;100.00;102514.75;4832294;29;20114;-87
2021/01/10 03:26:22;;;;;;;10.93;5.60;;;;;;;0.14;100.00;102521.56;4831995;29;20050;-87
2021/01/10 03:28:48;;;;;;;7.72;4.60;;;;;;;0.03;100.00;102517.84;4832307;29;20063;-87
2021/01/10 03:31:13;;;;;;;15.70;5.20;;;;;;;-0.10;100.00;102521.84;4830372;29;20037;-87
2021/01/10 03:33:45;;;;;;;6.85;4.55;;;;;;;-0.22;100.00;102518.03;4828766;29;20663;-87
2021/01/10 03:36:12;;;;;;;8.63;5.20;;;;;;;-0.07;100.00;102529.72;4829679;29;20033;-87
2021/01/10 03:38:37;;;;;;;10.77;5.43;;;;;;;-0.19;100.00;102524.19;4830387;29;20034;-87
2021/01/10 03:41:03;;;;;;;11.93;6.55;;;;;;;-0.11;100.00;102520.06;4845245;29;20054;-87
2021/01/10 03:43:28;;;;;;;10.05;5.90;;;;;;;-0.04;100.00;102513.31;4828624;29;20054;-87
2021/01/10 03:45:56;;;;;;;16.10;6.50;;;;;;;0.07;100.00;102513.59;4828410;29;20034;-87
2021/01/10 03:48:21;;;;;;;12.02;6.65;;;;;;;0.11;100.00;102520.63;4828590;29;20025;-87
2021/01/10 03:50:47;;;;;;;11.40;6.72;;;;;;;0.12;100.00;102530.19;4826647;29;20026;-86
2021/01/10 03:53:12;;;;;;;8.35;5.55;;;;;;;0.04;100.00;102529.97;4825058;29;20035;-86
2021/01/10 03:55:38;;;;;;;13.35;5.30;;;;;;;-0.22;100.00;102510.25;4821545;29;20106;-86
2021/01/10 03:58:04;;;;;;;11.95;5.05;;;;;;;-0.17;100.00;102516.44;4828591;29;20383;-86
2021/01/10 04:00:29;;;;;;;11.65;6.22;;;;;;;-0.26;100.00;102506.66;4842906;29;20034;-87
2021/01/10 04:02:54;;;;;;;13.10;6.10;;;;;;;-0.15;100.00;102505.25;4825342;29;20026;-87
2021/01/10 04:05:20;;;;;;;15.25;6.75;;;;;;;-0.20;100.00;102508.53;4829564;29;20039;-87
2021/01/10 04:07:45;;;;;;;12.93;5.38;;;;;;;-0.16;100.00;102513.88;4829537;29;20573;-87
2021/01/10 04:10:10;;;;;;;13.13;5.82;;;;;;;-0.30;100.00;102491.88;4831353;29;20053;-87
2021/01/10 04:12:36;;;;;;;9.10;5.95;;;;;;;-0.24;100.00;102515.41;4827881;29;20061;-87
2021/01/10 04:15:01;;;;;;;11.82;5.25;;;;;;;-0.23;100.00;102493.78;4829285;29;20033;-87
2021/01/10 04:17:27;;;;;;;10.30;5.05;;;;;;;0.01;100.00;102513.44;4828885;29;20033;-87
2021/01/10 04:19:55;;;;;;;12.60;5.30;;;;;;;0.05;100.00;102495.38;4828496;29;20033;-87
2021/01/10 04:22:21;;;;;;;8.70;6.03;;;;;;;0.09;100.00;102519.69;4843732;29;20041;-86
2021/01/10 04:24:47;;;;;;;13.05;5.20;;;;;;;0.06;100.00;102504.03;4827230;29;20014;-87
2021/01/10 04:27:12;;;;;;;9.77;5.78;;;;;;;0.31;100.00;102497.72;4841869;29;20532;-87
2021/01/10 04:29:38;;;;;;;7.95;5.30;;;;;;;0.22;100.00;102503.56;4827111;29;20034;-87
2021/01/10 04:32:03;;;;;;;7.88;5.18;;;;;;;0.17;100.00;102498.25;4827634;29;20032;-87
2021/01/10 04:34:32;;;;;;;10.43;4.68;;;;;;;0.32;100.00;102517.69;4828214;29;20092;-87
2021/01/10 04:36:57;;;;;;;9.90;5.72;;;;;;;0.22;100.00;102490.56;4845612;29;20041;-87
2021/01/10 04:39:23;;;;;;;10.13;5.88;;;;;;;0.39;100.00;102519.59;4828948;29;20175;-87
2021/01/10 04:41:48;;;;;;;9.27;6.10;;;;;;;0.42;100.00;102507.53;4829041;29;20069;-86
2021/01/10 04:44:15;;;;;;;7.45;5.53;;;;;;;0.42;100.00;102504.94;4829123;29;20098;-86
2021/01/10 04:46:41;;;;;;;8.93;5.50;;;;;;;0.36;100.00;102514.31;4829858;29;20061;-87
2021/01/10 04:49:07;;;;;;;13.07;4.90;;;;;;;0.41;100.00;102497.97;4830474;29;20481;-87
2021/01/10 04:51:34;;;;;;;8.40;4.95;;;;;;;0.50;100.00;102500.81;4825843;29;20030;-87
2021/01/10 04:54:02;;;;;;;8.80;5.05;;;;;;;0.56;100.00;102481.84;4825777;29;20030;-87
2021/01/10 04:56:29;;;;;;;15.75;5.72;;;;;;;0.61;100.00;102505.38;4827249;29;20518;-87
2021/01/10 04:58:58;;;;;;;8.20;5.05;;;;;;;0.73;100.00;102479.63;4829401;29;20038;-87
2021/01/10 05:01:24;;;;;;;9.70;4.63;;;;;;;0.83;100.00;102491.13;4829907;29;20113;-87
2021/01/10 05:03:56;;;;;;;10.90;4.43;;;;;;;0.82;100.00;102466.81;4829163;29;20110;-86
2021/01/10 05:06:22;;;;;;;6.38;4.32;;;;;;;0.92;100.00;102483.50;4828962;29;20121;-86
2021/01/10 05:08:49;;;;;;;8.02;4.65;;;;;;;0.84;100.00;102490.25;4828314;29;20044;-87
2021/01/10 05:11:17;;;;;;;9.57;4.70;;;;;;;0.61;100.00;102479.34;4831804;29;20049;-86
2021/01/10 05:13:44;;;;;;;12.57;4.70;;;;;;;0.57;100.00;102467.13;4839575;29;20039;-87
2021/01/10 05:16:09;;;;;;;13.13;5.97;;;;;;;0.35;100.00;102464.03;4831492;29;20026;-87
2021/01/10 05:18:48;;;;;;;9.13;4.90;;;;;;;0.34;100.00;102458.78;4829973;29;20494;-87
2021/01/10 05:21:13;;;;;;;10.57;4.60;;;;;;;0.42;100.00;102468.53;4822499;29;20029;-87
2021/01/10 05:23:39;;;;;;;7.90;4.78;;;;;;;0.47;100.00;102469.50;4834710;29;20045;-87
2021/01/10 05:26:08;;;;;;;7.97;4.97;;;;;;;0.69;100.00;102478.66;4826990;29;20037;-86
2021/01/10 05:28:36;;;;;;;11.32;4.90;;;;;;;0.85;100.00;102477.28;4825325;29;20109;-86
2021/01/10 05:31:08;;;;;;;6.55;4.35;;;;;;;0.72;100.00;102459.66;4827452;29;20086;-86
2021/01/10 05:33:49;;;;;;;15.93;4.32;;;;;;;0.54;100.00;102454.91;4825983;29;20026;-87
2021/01/10 05:36:31;;;;;;;13.68;3.60;;;;;;;0.65;100.00;102458.66;4830950;29;20034;-86
2021/01/10 05:39:20;;;;;;;13.50;4.85;;;;;;;0.79;100.00;102477.16;4850781;29;20030;-87
2021/01/10 05:41:57;;;;;;;7.32;3.90;;;;;;;0.85;100.00;102473.78;4824556;29;20042;-86
2021/01/10 05:44:27;;;;;;;8.25;4.25;;;;;;;0.77;100.00;102458.91;4831539;29;20078;-86
2021/01/10 05:47:07;;;;;;;8.90;3.90;;;;;;;1.08;100.00;102458.66;4831328;29;20041;-86
2021/01/10 05:49:33;;;;;;;10.63;3.80;;;;;;;1.17;100.00;102479.69;4843773;29;20060;-86
2021/01/10 05:52:10;;;;;;;13.48;4.38;;;;;;;1.12;100.00;102457.88;4831905;29;20033;-86
2021/01/10 05:54:40;;;;;;;8.60;3.58;;;;;;;1.13;100.00;102463.13;4828739;29;20034;-86
2021/01/10 05:57:08;;;;;;;11.18;3.67;;;;;;;1.14;100.00;102471.81;4833496;29;20042;-87
2021/01/10 05:59:36;;;;;;;11.80;4.88;;;;;;;1.11;100.00;102472.63;4832005;29;20066;-86
2021/01/10 06:02:04;;;;;;;7.43;3.85;;;;;;;1.16;100.00;102455.38;4828596;29;20494;-86
2021/01/10 06:04:29;;;;;;;12.00;3.97;;;;;;;1.26;100.00;102466.84;4824366;29;20065;-86
2021/01/10 06:06:57;;;;;;;9.30;4.10;;;;;;;1.40;100.00;102474.91;4828206;29;20079;-86
2021/01/10 06:09:22;;;;;;;6.72;4.20;;;;;;;1.43;100.00;102477.59;4813361;29;20086;-86
2021/01/10 06:11:48;;;;;;;11.48;4.85;;;;;;;1.41;100.00;102474.09;4826706;29;20029;-87
2021/01/10 06:14:20;;;;;;;10.40;3.80;;;;;;;1.42;100.00;102483.66;4828448;29;20025;-87
2021/01/10 06:16:53;;;;;;;10.40;4.63;;;;;;;1.48;100.00;102484.66;4812689;29;21624;-86
2021/01/10 06:19:24;;;;;;;9.18;3.80;;;;;;;1.46;100.00;102482.88;4821822;29;20041;-87
2021/01/10 06:21:51;;;;;;;14.88;4.30;;;;;;;1.47;100.00;102487.22;4829938;29;20206;-87
2021/01/10 06:24:19;;;;;;;6.82;3.63;;;;;;;1.47;100.00;102488.09;4829078;29;20029;-87
2021/01/10 06:26:50;;;;;;;8.00;3.67;;;;;;;1.36;100.00;102479.22;4832049;29;20121;-87
2021/01/10 06:29:19;;;;;;;10.07;3.92;;;;;;;1.43;100.00;102488.03;4835659;29;20033;-86
2021/01/10 06:31:46;;;;;;;12.52;4.50;;;;;;;1.44;100.00;102485.44;4833353;29;20117;-86
2021/01/10 06:34:11;;;;;;;9.02;3.67;;;;;;;1.37;100.00;102474.88;4830769;29;20589;-86
2021/01/10 06:36:39;;;;;;;9.65;4.53;;;;;;;1.53;100.00;102488.22;4829658;29;20046;-86
2021/01/10 06:39:13;;;;;;;7.65;3.88;;;;;;;1.37;100.00;102459.25;4829157;29;20037;-87
2021/01/10 06:41:59;;;;;;;10.23;3.80;;;;;;;1.53;100.00;102484.75;4828964;29;20026;-87
2021/01/10 06:44:24;;;;;;;8.10;3.70;;;;;;;1.39;100.00;102475.78;4840617;29;20034;-86
2021/01/10 06:46:54;;;;;;;7.43;4.60;;;;;;;1.58;100.00;102488.31;4828059;29;20114;-86
2021/01/10 06:49:22;;;;;;;9.45;3.85;;;;;;;1.57;100.00;102475.25;4826422;29;20053;-85
2021/01/10 06:51:50;;;;;;;8.48;4.32;;;;;;;1.51;100.00;102474.28;4825305;29;20041;-85
2021/01/10 06:54:15;;;;;;;7.93;3.03;;;;;;;1.63;100.00;102493.63;4825071;29;20030;-86
2021/01/10 06:56:48;;;;;;;7.55;3.17;;;;;;;1.52;100.00;102486.47;4827791;29;20030;-86
2021/01/10 06:59:18;;;;;;;8.23;3.38;;;;;;;1.59;100.00;102490.06;4823561;29;20036;-85
2021/01/10 07:01:53;;;;;;;7.70;3.38;;;;;;;1.54;100.00;102495.19;4818939;29;20066;-85
2021/01/10 07:04:37;;;;;;;14.93;3.83;;;;;;;1.48;100.00;102494.19;4821444;29;20026;-85
2021/01/10 07:07:03;;;;;;;6.57;3.70;;;;;;;1.49;100.00;102486.41;4821045;29;20078;-86
2021/01/10 07:09:57;;;;;;;9.32;3.28;;;;;;;1.58;100.00;102488.31;4827149;29;20026;-85
2021/01/10 07:12:23;;;;;;;5.20;3.30;;;;;;;1.57;100.00;102486.56;4827903;29;20401;-86
2021/01/10 07:14:49;;;;;;;7.03;2.90;;;;;;;1.61;100.00;102491.00;4830035;29;20121;-86
2021/01/10 07:17:15;;;;;;;10.48;4.28;;;;;;;1.68;100.00;102492.84;4830371;29;20067;-87
2021/01/10 07:19:43;;;;;;;9.80;3.10;;;;;;;1.65;100.00;102478.88;4827273;29;20049;-86
2021/01/10 07:22:27;;;;;;;11.85;3.20;;;;;;;1.79;100.00;102487.81;4826522;29;20029;-85
2021/01/10 07:24:53;;;;;;;4.53;2.47;;;;;;;1.75;100.00;102486.88;4843276;29;20022;-85
2021/01/10 07:27:34;;;;;;;7.22;2.50;;;;;;;1.80;100.00;102495.66;4828342;29;20571;-86
2021/01/10 07:30:25;;;;;;;9.38;3.17;;;;;;;1.77;100.00;102495.63;4839600;29;20037;-87
2021/01/10 07:32:50;;;;;;;8.80;2.65;;;;;;;1.86;100.00;102500.13;4827905;29;20031;-87
2021/01/10 07:35:16;;;;;;;7.00;3.10;;;;;;;1.73;100.00;102480.78;4832362;29;20036;-87
2021/01/10 07:37:45;;;;;;;6.78;3.13;;;;;;;1.75;100.00;102494.69;4831508;29;20094;-87
2021/01/10 07:40:11;;;;;;;5.88;3.00;;;;;;;1.68;100.00;102491.97;4830202;29;20034;-87
2021/01/10 07:43:00;;;;;;;7.45;2.85;;;;;;;1.88;100.00;102501.03;4828001;29;20139;-86
2021/01/10 07:45:37;;;;;;;8.82;3.28;;;;;;;1.67;100.00;102470.25;4828351;29;20495;-87
2021/01/10 07:48:04;;;;;;;9.75;3.13;;;;;;;1.73;100.00;102499.03;4826114;29;20032;-86
2021/01/10 07:50:29;;;;;;;7.70;3.20;;;;;;;1.51;100.00;102474.28;4843244;29;20033;-86
2021/01/10 07:52:56;;;;;;;4.97;2.90;;;;;;;1.68;100.00;102500.66;4823832;29;20402;-86
2021/01/10 07:55:24;;;;;;;18.13;3.47;;;;;;;1.60;100.00;102485.72;4823744;29;20056;-87
2021/01/10 07:58:02;;;;;;;9.15;3.60;;;;;;;1.73;100.00;102501.63;4821685;29;20085;-86
2021/01/10 08:00:32;;;;;;;9.13;5.00;;;;;;;1.75;100.00;102488.59;4832359;29;20034;-87
2021/01/10 08:03:00;;;;;;;11.93;5.72;;;;;;;1.87;100.00;102504.50;4823655;29;20424;-86
2021/01/10 08:05:33;;;;;;;7.53;4.97;;;;;;;1.86;100.00;102512.25;4844329;29;20049;-87
2021/01/10 08:08:00;;;;;;;10.63;6.40;;;;;;;1.87;100.00;102514.91;4843775;29;20041;-87
2021/01/10 08:10:41;;;;;;;15.82;6.70;;;;;;;1.66;100.00;102489.34;4828122;29;20093;-87
2021/01/10 08:13:46;;;;;;;12.05;6.25;;;;;;;1.72;100.00;102505.09;4824165;29;20038;-87
2021/01/10 08:16:32;;;;;;;14.85;7.20;;;;;;;1.71;100.00;102512.88;4842435;29;20036;-87
2021/01/10 08:19:03;;;;;;;11.02;6.65;;;;;;;1.68;100.00;102503.28;4825996;29;20780;-87
2021/01/10 08:21:30;;;;;;;12.68;7.43;;;;;;;1.73;100.00;102512.06;4845987;29;20021;-87
2021/01/10 08:23:56;;;;;;;21.02;7.05;;;;;;;1.78;100.00;102509.53;4824752;29;20026;-87
2021/01/10 08:26:21;;;;;;;13.00;6.68;;;;;;;1.86;100.00;102509.66;4849177;29;20146;-87
2021/01/10 08:28:52;;;;;;;10.15;6.13;;;;;;;1.79;100.00;102514.75;4828578;29;20046;-86
2021/01/10 08:31:23;;;;;;;12.65;6.40;;;;;;;1.87;100.00;102511.44;4827271;29;20041;-86
2021/01/10 08:33:58;;;;;;;12.68;6.07;;;;;;;1.91;100.00;102513.22;4832860;29;20033;-87
2021/01/10 08:36:24;;;;;;;29.80;7.30;;;;;;;1.87;100.00;102506.22;4824946;29;20022;-87
2021/01/10 08:38:57;;;;;;;12.60;6.22;;;;;;;1.89;100.00;102515.81;4844749;29;20314;-86
2021/01/10 08:41:31;;;;;;;13.95;7.32;;;;;;;1.90;100.00;102522.78;4828399;29;20403;-87
2021/01/10 08:44:10;;;;;;;15.32;6.43;;;;;;;1.81;100.00;102510.47;4828844;29;20038;-88
2021/01/10 08:46:38;;;;;;;13.02;7.63;;;;;;;1.87;100.00;102525.34;4830307;29;20038;-87
2021/01/10 08:49:04;;;;;;;14.27;8.50;;;;;;;1.87;100.00;102520.13;4833532;29;20673;-88
2021/01/10 08:51:39;;;;;;;21.55;9.68;;;;;;;1.92;100.00;102523.69;4849332;29;20064;-88
2021/01/10 08:54:12;;;;;;;13.90;7.10;;;;;;;2.13;100.00;102519.72;4846970;29;20086;-88
2021/01/10 08:56:38;;;;;;;16.52;7.97;;;;;;;2.20;100.00;102527.66;4829632;29;20033;-87
2021/01/10 08:59:05;;;;;;;15.23;7.38;;;;;;;2.41;100.00;102518.41;4830611;29;20487;-87
2021/01/10 09:01:30;;;;;;;13.07;7.25;;;;;;;2.34;100.00;102514.84;4845969;29;20042;-87
2021/01/10 09:04:06;;;;;;;19.65;7.85;;;;;;;2.52;100.00;102517.75;4825737;29;20057;-87
2021/01/10 09:06:47;;;;;;;11.23;7.20;;;;;;;2.84;100.00;102527.78;4837223;29;20039;-87
2021/01/10 09:09:21;;;;;;;14.90;7.80;;;;;;;3.02;100.00;102512.38;4828167;29;20121;-87
2021/01/10 09:11:55;;;;;;;11.68;7.97;;;;;;;3.06;100.00;102495.91;4846952;29;20033;-87
2021/01/10 09:14:23;;;;;;;13.65;8.13;;;;;;;3.29;100.00;102521.44;4833938;29;20451;-87
2021/01/10 09:16:51;;;;;;;12.57;7.05;;;;;;;3.28;100.00;102524.91;4830113;29;20026;-87
2021/01/10 09:19:17;;;;;;;18.90;7.35;;;;;;;3.38;100.00;102496.28;4832342;29;20125;-87
2021/01/10 09:21:47;;;;;;;16.25;6.85;;;;;;;3.53;100.00;102513.00;4830492;29;20030;-87
2021/01/10 09:24:13;;;;;;;11.18;6.38;;;;;;;3.43;100.00;102509.41;4848733;29;20375;-87
2021/01/10 09:26:38;;;;;;;19.20;7.03;;;;;;;3.79;100.00;102523.75;4844103;29;20136;-87
2021/01/10 09:29:17;;;;;;;11.50;5.85;;;;;;;3.67;100.00;102513.16;4828300;29;20113;-87
2021/01/10 09:31:45;;;;;;;14.60;6.88;;;;;;;3.71;100.00;102528.00;4831025;29;20030;-87
2021/01/10 09:34:11;;;;;;;13.23;6.90;;;;;;;3.75;100.00;102509.75;4847619;29;20042;-87
2021/01/10 09:36:37;;;;;;;16.73;7.13;;;;;;;3.40;100.00;102532.88;4832363;29;20041;-87
2021/01/10 09:39:04;;;;;;;15.15;7.55;;;;;;;3.29;100.00;102529.25;4846591;29;20054;-87
2021/01/10 09:41:29;;;;;;;17.73;7.72;;;;;;;3.07;100.00;102526.38;4847526;29;20757;-87
2021/01/10 09:43:58;;;;;;;11.73;7.15;;;;;;;3.65;100.00;102534.03;4845481;29;20061;-87
2021/01/10 09:46:32;;;;;;;12.73;7.03;;;;;;;3.97;100.00;102521.31;4848799;29;20074;-87
2021/01/10 09:48:58;;;;;;;10.85;6.22;;;;;;;4.38;100.00;102523.41;4827750;29;20030;-87
2021/01/10 09:51:24;;;;;;;18.67;6.97;;;;;;;3.48;100.00;102536.47;4834511;29;20042;-87
2021/01/10 09:53:50;;;;;;;16.17;6.70;;;;;;;3.93;100.00;102518.66;4833844;29;20911;-87
2021/01/10 09:56:37;;;;;;;16.98;7.18;;;;;;;4.62;99.15;102528.84;4834474;29;20030;-87
2021/01/10 09:59:02;;;;;;;12.02;6.88;;;;;;;5.22;96.90;102509.94;4825677;29;20398;-87
2021/01/10 10:01:36;;;;;;;10.38;6.60;;;;;;;5.85;94.56;102516.25;4832178;29;20034;-87
2021/01/10 10:04:02;;;;;;;15.90;6.47;;;;;;;5.96;92.45;102519.81;4830823;29;20018;-87
2021/01/10 10:06:27;;;;;;;11.55;6.03;;;;;;;5.81;91.24;102499.63;4829313;29;20038;-87
2021/01/10 10:08:54;;;;;;;10.45;5.40;;;;;;;5.78;90.45;102501.41;4831456;29;20121;-87
2021/01/10 10:11:19;;;;;;;12.77;6.18;;;;;;;6.31;90.56;102501.44;4829813;29;20759;-87
2021/01/10 10:13:45;;;;;;;9.68;5.80;;;;;;;6.39;89.51;102510.22;4847005;29;20044;-87
2021/01/10 10:16:16;;;;;;;12.85;5.57;;;;;;;6.45;87.90;102491.81;4831695;29;20032;-88
2021/01/10 10:18:42;;;;;;;11.70;5.30;;;;;;;6.69;87.39;102501.41;4831364;29;20037;-87
2021/01/10 10:21:08;;;;;;;9.45;4.93;;;;;;;7.00;86.21;102514.47;4830496;29;20025;-85
2021/01/10 10:23:33;;;;;;;11.05;4.97;;;;;;;7.23;86.03;102517.91;4831116;29;20033;-85
2021/01/10 10:25:58;;;;;;;11.82;5.35;;;;;;;7.34;84.76;102514.38;4826359;29;20075;-86
2021/01/10 10:28:23;;;;;;;10.48;5.72;;;;;;;7.57;84.53;102508.97;4831554;29;20373;-86
2021/01/10 10:30:49;;;;;;;11.80;4.75;;;;;;;7.60;82.78;102501.94;4830281;29;20045;-86
2021/01/10 10:33:16;;;;;;;13.38;6.07;;;;;;;7.37;84.91;102496.78;4830934;29;20037;-86
2021/01/10 10:35:42;;;;;;;9.70;4.75;;;;;;;7.18;83.85;102493.41;4829709;29;20036;-87
2021/01/10 10:38:07;;;;;;;8.57;4.80;;;;;;;7.58;82.45;102500.19;4845458;29;20666;-87
2021/01/10 10:40:53;;;;;;;10.48;4.95;;;;;;;7.55;83.88;102484.44;4827298;29;20030;-87
2021/01/10 10:43:18;;;;;;;11.17;5.53;;;;;;;7.92;81.74;102500.88;4833829;29;20523;-87
2021/01/10 10:45:43;;;;;;;10.50;4.95;;;;;;;7.98;80.85;102479.75;4830047;29;20040;-86
2021/01/10 10:48:09;;;;;;;11.68;4.72;;;;;;;8.19;79.26;102486.63;4830208;29;20109;-87
2021/01/10 10:50:35;;;;;;;7.80;4.38;;;;;;;8.23;80.32;102486.59;4831896;29;20450;-87
2021/01/10 10:53:00;;;;;;;6.13;4.03;;;;;;;8.66;79.01;102485.34;4820734;29;20053;-87
2021/01/10 10:55:28;;;;;;;10.75;4.45;;;;;;;8.76;77.50;102476.44;4835839;29;20757;-87
2021/01/10 10:57:53;;;;;;;10.70;4.65;;;;;;;8.11;78.30;102467.38;4829710;29;20029;-87
2021/01/10 11:00:19;;;;;;;10.23;4.50;;;;;;;8.23;79.30;102483.97;4823587;29;20563;-86
2021/01/10 11:02:45;;;;;;;14.52;5.10;;;;;;;8.76;78.54;102481.72;4838034;29;20034;-86
2021/01/10 11:05:10;;;;;;;7.03;3.92;;;;;;;8.84;77.85;102471.09;4839635;29;20041;-86
2021/01/10 11:07:36;;;;;;;6.25;3.75;;;;;;;9.19;76.27;102478.59;4847501;29;20089;-86
2021/01/10 11:10:03;;;;;;;7.85;4.10;;;;;;;8.80;76.81;102467.63;4833664;29;20407;-86
2021/01/10 11:12:32;;;;;;;6.95;4.22;;;;;;;8.74;76.66;102460.66;4846256;29;20058;-87
2021/01/10 11:14:57;;;;;;;8.43;3.88;;;;;;;8.80;77.17;102470.25;4830287;29;20441;-87
2021/01/10 11:17:22;;;;;;;9.23;4.30;;;;;;;9.15;75.60;102445.22;4846313;29;20057;-87
2021/01/10 11:19:48;;;;;;;7.38;4.38;;;;;;;9.19;75.71;102452.22;4827753;29;20128;-87
2021/01/10 11:22:13;;;;;;;5.60;3.75;;;;;;;9.17;76.39;102453.97;4829532;29;20105;-87
2021/01/10 11:24:39;;;;;;;8.48;4.20;;;;;;;8.69;79.22;102472.13;4847656;29;20030;-87
2021/01/10 11:27:04;;;;;;;9.15;4.65;;;;;;;7.18;83.03;102464.47;4832531;29;20087;-87
2021/01/10 11:29:30;;;;;;;9.23;4.50;;;;;;;6.39;85.74;102470.81;4834243;29;20022;-87